KSUE/SUE METAR and TAF weather

Enter ICAO airport designator
Station Type Date Time Source
KSUE METAR 2019/06/17 04:56 UTC NOAA

KSUE 170456Z AUTO 00000KT 10SM CLR 10/09 A3001 RMK AO2 SLP165 T01000089


Station Type Date Time Source
KSUE Decoded METAR 2019/06/17 04:56 UTC NOAA

Sturgeon Bay, WI, United States (KSUE) 44-51N 087-25W
Jun 17, 2019 - 12:56 AM EDT / 2019.06.17 0456 UTC
Wind: Calm:0
Visibility: 10 mile(s):0
Sky conditions: clear
Temperature: 50.0 F (10.0 C)
Dew Point: 48.0 F (8.9 C)
Relative Humidity: 92%
Pressure (altimeter): 30.01 in. Hg (1016 hPa)
ob: KSUE 170456Z AUTO 00000KT 10SM CLR 10/09 A3001 RMK AO2 SLP165 T01000089
cycle: 5

Station Type Date Time Source
KSUE TAF UTC NOAA

Error!

Example: see airport list